Time;durP1;ratioP1;P1;durP2;ratioP2;P2;SDS_P1;SDS_P2;PMS_P1;PMS_P2;Temp;Humidity;BMP_temperature;BMP_pressure;BME280_temperature;BME280_humidity;BME280_pressure;Samples;Min_cycle;Max_cycle;Signal;HPM_P1;HPM_P2
2023/05/19 00:03:39;;;;;;;4.13;1.60;;;;;;;11.83;50.08;98580.22;10530991;28;20044;-71
2023/05/19 00:09:02;;;;;;;4.53;1.93;;;;;;;11.68;50.16;98584.00;10530761;28;20509;-71
2023/05/19 00:14:22;;;;;;;6.97;1.67;;;;;;;11.56;50.35;98577.44;10530627;28;20357;-71
2023/05/19 00:19:43;;;;;;;6.13;1.80;;;;;;;11.47;50.62;98570.50;10516604;28;20107;-71
2023/05/19 00:25:05;;;;;;;3.83;1.65;;;;;;;11.45;50.78;98573.13;10516291;28;20047;-71
2023/05/19 00:30:25;;;;;;;5.13;1.60;;;;;;;11.40;50.30;98570.63;10545061;28;20182;-71
2023/05/19 00:35:46;;;;;;;4.40;1.50;;;;;;;11.30;50.92;98564.25;10529889;28;20126;-70
2023/05/19 00:41:07;;;;;;;3.95;1.60;;;;;;;11.26;51.22;98561.13;10515688;28;20125;-71
2023/05/19 00:46:29;;;;;;;3.55;1.42;;;;;;;11.26;51.52;98558.34;10529273;28;20116;-71
2023/05/19 00:51:50;;;;;;;3.78;1.50;;;;;;;11.25;51.25;98557.59;10529495;28;20063;-71
2023/05/19 00:57:12;;;;;;;2.95;1.30;;;;;;;11.20;51.52;98550.25;10529217;28;20131;-71
2023/05/19 01:02:33;;;;;;;6.05;1.60;;;;;;;11.16;51.92;98552.69;10514714;28;20115;-71
2023/05/19 01:07:55;;;;;;;3.13;1.27;;;;;;;11.09;51.84;98557.06;10527776;28;20111;-71
2023/05/19 01:13:16;;;;;;;5.25;1.42;;;;;;;11.00;52.72;98548.63;10500783;28;20181;-71
2023/05/19 01:18:46;;;;;;;4.25;1.25;;;;;;;10.90;52.86;98542.97;10500111;28;20117;-71
2023/05/19 01:24:22;;;;;;;5.35;1.75;;;;;;;10.87;53.10;98546.94;10514025;28;20497;-71
2023/05/19 01:30:16;;;;;;;5.40;1.65;;;;;;;10.77;53.97;98548.94;10527675;28;20123;-71
2023/05/19 01:35:37;;;;;;;4.15;1.77;;;;;;;10.71;53.78;98548.44;10513737;28;20398;-71
2023/05/19 01:41:00;;;;;;;5.80;1.70;;;;;;;10.68;53.65;98546.81;10527548;28;20166;-71
2023/05/19 01:46:21;;;;;;;4.35;1.67;;;;;;;10.64;54.29;98547.25;10513008;28;20113;-71
2023/05/19 01:51:41;;;;;;;4.00;1.40;;;;;;;10.62;54.39;98549.13;10526953;28;20107;-71
2023/05/19 01:57:28;;;;;;;4.63;1.30;;;;;;;10.63;54.45;98550.63;10512531;28;20067;-71
2023/05/19 02:03:17;;;;;;;4.85;1.15;;;;;;;10.64;54.76;98544.44;10526049;28;20434;-71
2023/05/19 02:08:58;;;;;;;5.40;1.77;;;;;;;10.59;55.09;98551.75;10515387;28;20112;-71
2023/05/19 02:14:32;;;;;;;4.13;1.70;;;;;;;10.54;55.58;98543.63;10512541;28;20118;-71
2023/05/19 02:19:53;;;;;;;5.50;1.52;;;;;;;10.38;55.64;98540.28;10513786;28;20409;-71
2023/05/19 02:25:14;;;;;;;4.22;1.50;;;;;;;10.37;55.77;98540.84;10497625;28;20494;-71
2023/05/19 02:30:34;;;;;;;4.97;1.85;;;;;;;10.33;56.36;98532.91;10525027;28;20127;-71
2023/05/19 02:35:56;;;;;;;4.60;2.00;;;;;;;10.31;56.19;98524.34;10525384;28;20124;-71
2023/05/19 02:41:17;;;;;;;4.25;1.63;;;;;;;10.23;56.37;98516.06;10525110;28;20182;-71
2023/05/19 02:46:37;;;;;;;7.18;2.00;;;;;;;10.18;56.81;98519.06;10497219;28;20116;-71
2023/05/19 02:51:58;;;;;;;6.82;1.88;;;;;;;10.01;56.48;98509.38;10525044;28;20108;-71
2023/05/19 02:57:18;;;;;;;5.20;2.00;;;;;;;9.85;57.29;98510.84;10539865;28;20114;-70
2023/05/19 03:02:40;;;;;;;4.75;1.95;;;;;;;9.73;57.71;98509.81;10524675;28;20120;-71
2023/05/19 03:08:01;;;;;;;4.28;1.73;;;;;;;9.61;58.36;98514.41;10510970;28;20483;-72
2023/05/19 03:13:22;;;;;;;4.85;1.98;;;;;;;9.51;58.58;98516.34;10510413;28;20138;-71
2023/05/19 03:18:44;;;;;;;5.53;2.25;;;;;;;9.45;59.22;98520.09;10539433;28;20111;-70
2023/05/19 03:24:05;;;;;;;4.90;2.00;;;;;;;9.36;59.51;98512.38;10510010;28;20493;-71
2023/05/19 03:29:27;;;;;;;5.55;2.13;;;;;;;9.33;60.42;98510.72;10512948;28;20178;-71
2023/05/19 03:34:47;;;;;;;4.88;2.33;;;;;;;9.26;60.85;98514.28;10518275;28;20446;-71
2023/05/19 03:40:09;;;;;;;7.25;2.30;;;;;;;9.22;61.01;98513.94;10518003;28;20489;-70
2023/05/19 03:45:32;;;;;;;;;;;;;;;9.25;61.43;98518.38;10505123;28;20118;-71
2023/05/19 03:51:03;;;;;;;8.30;2.38;;;;;;;9.31;61.03;98510.56;10519049;28;19920;-71
2023/05/19 03:56:26;;;;;;;4.88;1.92;;;;;;;9.34;62.02;98514.97;10517711;28;20068;-70
2023/05/19 04:01:47;;;;;;;5.28;2.03;;;;;;;9.50;62.25;98510.03;10531222;28;20244;-71
2023/05/19 04:07:08;;;;;;;5.57;2.15;;;;;;;9.66;61.48;98511.38;10546155;28;20119;-70
2023/05/19 04:12:29;;;;;;;4.78;2.00;;;;;;;9.90;61.15;98501.50;10502730;28;20458;-71
2023/05/19 04:17:49;;;;;;;6.72;2.10;;;;;;;10.02;60.89;98501.75;10502553;28;20114;-71
2023/05/19 04:23:11;;;;;;;5.05;2.03;;;;;;;10.05;61.00;98511.78;10530515;28;20063;-71
2023/05/19 04:28:34;;;;;;;4.80;2.20;;;;;;;10.11;60.75;98517.84;10530214;28;20119;-70
2023/05/19 04:33:56;;;;;;;4.80;2.00;;;;;;;10.07;61.12;98513.97;10516549;28;20043;-71
2023/05/19 04:39:17;;;;;;;9.63;2.13;;;;;;;10.20;60.56;98522.75;10529260;28;20067;-71
2023/05/19 04:44:39;;;;;;;5.40;2.25;;;;;;;10.26;60.22;98517.72;10529279;28;20141;-70
2023/05/19 04:50:00;;;;;;;6.22;2.22;;;;;;;10.58;60.72;98527.94;10515142;28;20481;-71
2023/05/19 04:55:21;;;;;;;6.45;2.38;;;;;;;10.94;59.76;98529.34;10529432;28;20114;-71
2023/05/19 05:00:42;;;;;;;5.80;2.40;;;;;;;11.28;58.76;98522.16;10501145;28;20044;-71
2023/05/19 05:06:05;;;;;;;5.90;1.90;;;;;;;11.74;58.92;98519.38;10514571;28;20077;-71
2023/05/19 05:11:26;;;;;;;4.88;2.03;;;;;;;12.09;57.17;98525.53;10500781;28;20119;-71
2023/05/19 05:16:48;;;;;;;6.60;2.92;;;;;;;12.41;55.89;98532.75;10528430;28;20119;-71
2023/05/19 05:22:14;;;;;;;8.20;2.70;;;;;;;12.77;55.08;98508.69;10515653;28;20120;-71
2023/05/19 05:27:35;;;;;;;5.68;2.45;;;;;;;13.20;54.40;98508.91;10499891;28;20123;-71
2023/05/19 05:32:58;;;;;;;7.28;2.45;;;;;;;13.61;53.79;98501.22;10527887;28;20120;-71
2023/05/19 05:38:26;;;;;;;6.90;2.40;;;;;;;14.00;51.22;98513.69;10501635;28;20111;-71
2023/05/19 05:43:47;;;;;;;6.45;2.55;;;;;;;14.38;50.25;98508.34;10527016;28;20079;-71
2023/05/19 05:49:07;;;;;;;5.82;2.63;;;;;;;14.81;49.41;98506.22;10499505;28;20111;-71
2023/05/19 05:54:28;;;;;;;4.75;2.10;;;;;;;14.82;48.46;98510.50;10498901;28;20048;-70
2023/05/19 05:59:50;;;;;;;5.78;2.10;;;;;;;15.58;47.49;98510.97;10527021;28;20529;-71
2023/05/19 06:05:11;;;;;;;5.05;2.00;;;;;;;16.33;46.06;98505.47;10526937;28;20418;-72
2023/05/19 06:10:35;;;;;;;4.97;2.37;;;;;;;17.07;44.41;98508.19;10527639;28;20040;-71
2023/05/19 06:15:59;;;;;;;11.88;2.50;;;;;;;17.25;42.88;98508.44;10513379;28;20119;-71
2023/05/19 06:21:30;;;;;;;5.68;2.08;;;;;;;17.27;42.56;98509.28;10525816;28;20124;-71
2023/05/19 06:26:51;;;;;;;4.13;1.85;;;;;;;17.78;42.03;98511.97;10525510;28;20116;-71
2023/05/19 06:32:12;;;;;;;8.75;2.40;;;;;;;17.96;40.89;98510.09;10525268;28;20079;-71
2023/05/19 06:37:34;;;;;;;5.32;2.30;;;;;;;18.30;39.56;98513.16;10511086;28;20163;-71
2023/05/19 06:42:56;;;;;;;5.40;2.45;;;;;;;18.51;38.64;98515.59;10525126;28;20119;-71
2023/05/19 06:48:26;;;;;;;7.45;2.60;;;;;;;18.39;38.26;98520.66;10524509;28;20111;-71
2023/05/19 06:53:47;;;;;;;5.60;2.22;;;;;;;18.16;38.61;98520.94;10510526;28;20119;-71
2023/05/19 06:59:08;;;;;;;7.20;1.90;;;;;;;18.27;38.09;98520.09;10524267;28;20157;-71
2023/05/19 07:04:30;;;;;;;4.68;2.05;;;;;;;19.04;37.35;98523.09;10523682;28;20147;-71
2023/05/19 07:09:51;;;;;;;8.98;2.55;;;;;;;18.54;37.54;98531.31;10496253;28;20116;-71
2023/05/19 07:15:11;;;;;;;5.80;2.38;;;;;;;18.80;37.21;98531.13;10524111;28;20048;-71
2023/05/19 07:20:32;;;;;;;6.60;1.73;;;;;;;18.82;36.98;98531.25;10524247;28;20501;-71
2023/05/19 07:25:57;;;;;;;6.90;2.50;;;;;;;19.65;35.81;98520.19;10523749;28;20149;-71
2023/05/19 07:31:18;;;;;;;6.80;2.50;;;;;;;19.95;35.20;98529.28;10524352;28;20125;-69
2023/05/19 07:36:38;;;;;;;7.45;2.20;;;;;;;20.53;33.29;98536.72;10538660;28;20127;-69
2023/05/19 07:41:59;;;;;;;5.03;2.30;;;;;;;20.91;32.98;98530.41;10523921;28;20541;-69
2023/05/19 07:47:20;;;;;;;5.15;2.10;;;;;;;21.55;31.72;98525.78;10509860;28;20044;-69
2023/05/19 07:52:41;;;;;;;4.47;2.10;;;;;;;21.33;31.29;98523.56;10509765;28;20044;-69
2023/05/19 07:58:01;;;;;;;7.20;1.85;;;;;;;21.46;31.66;98515.50;10509473;28;20068;-69
2023/05/19 08:03:22;;;;;;;4.03;1.88;;;;;;;21.78;31.20;98515.94;10538308;28;20107;-70
2023/05/19 08:08:43;;;;;;;6.45;1.77;;;;;;;22.14;29.75;98514.41;10538638;28;20075;-69
2023/05/19 08:14:04;;;;;;;6.45;2.00;;;;;;;22.26;29.30;98514.81;10523264;28;20123;-69
2023/05/19 08:19:25;;;;;;;3.85;1.80;;;;;;;22.41;28.97;98513.16;10502209;28;20451;-69
2023/05/19 08:24:48;;;;;;;3.13;1.50;;;;;;;23.37;28.55;98501.91;10516228;28;20562;-69
2023/05/19 08:30:09;;;;;;;2.92;1.63;;;;;;;24.93;26.43;98501.69;10515938;28;20128;-69
2023/05/19 08:35:30;;;;;;;5.20;1.67;;;;;;;24.21;25.61;98499.22;10530111;28;20119;-69
2023/05/19 08:40:51;;;;;;;5.38;2.40;;;;;;;23.70;26.45;98501.47;10529392;28;20059;-69
2023/05/19 08:46:12;;;;;;;4.35;1.60;;;;;;;23.38;27.34;98500.53;10529387;28;20116;-69
2023/05/19 08:51:40;;;;;;;5.47;1.63;;;;;;;23.13;27.06;98485.56;10529102;28;20127;-69
2023/05/19 08:57:01;;;;;;;3.88;1.90;;;;;;;22.99;28.04;98488.00;10529475;28;20047;-70
2023/05/19 09:02:22;;;;;;;5.22;2.00;;;;;;;23.27;27.73;98493.81;10486929;28;20378;-69
2023/05/19 09:07:43;;;;;;;4.43;1.85;;;;;;;22.51;29.13;98487.91;10500630;28;20032;-69
2023/05/19 09:13:05;;;;;;;4.25;2.20;;;;;;;22.05;29.65;98474.94;10528485;28;20040;-69
2023/05/19 09:18:26;;;;;;;3.83;1.77;;;;;;;22.74;29.73;98468.69;10528245;28;20158;-69
2023/05/19 09:23:47;;;;;;;3.88;1.92;;;;;;;22.11;29.34;98463.81;10514016;28;20063;-69
2023/05/19 09:29:15;;;;;;;4.28;2.20;;;;;;;22.59;29.21;98461.09;10527229;28;20508;-69
2023/05/19 09:34:40;;;;;;;3.53;2.05;;;;;;;22.88;29.06;98463.47;10528182;28;20068;-69
2023/05/19 09:40:01;;;;;;;3.75;1.63;;;;;;;23.42;29.23;98467.16;10513561;28;20474;-69
2023/05/19 09:45:21;;;;;;;4.25;1.92;;;;;;;24.32;27.84;98466.00;10513171;28;20047;-69
2023/05/19 09:50:44;;;;;;;5.07;2.10;;;;;;;24.81;26.61;98447.91;10499235;28;20063;-69
2023/05/19 09:56:05;;;;;;;3.90;1.95;;;;;;;25.34;25.89;98454.75;10513076;28;20456;-71
2023/05/19 10:01:26;;;;;;;4.32;1.52;;;;;;;25.93;24.63;98453.06;10526432;28;20558;-71
2023/05/19 10:06:52;;;;;;;3.45;1.90;;;;;;;26.34;25.21;98456.59;10512195;28;20493;-71
2023/05/19 10:12:13;;;;;;;4.70;1.55;;;;;;;26.96;23.55;98454.00;10512467;28;20062;-71
2023/05/19 10:17:34;;;;;;;3.33;1.77;;;;;;;26.64;24.35;98442.81;10526036;28;20379;-71
2023/05/19 10:22:56;;;;;;;;;;;;;;;27.30;24.28;98435.81;10512393;28;20048;-71
2023/05/19 10:28:19;;;;;;;3.25;1.33;;;;;;;27.19;23.83;98439.97;10540398;28;19920;-71
2023/05/19 10:33:53;;;;;;;4.43;1.65;;;;;;;26.27;24.59;98435.75;10511460;28;20090;-71
2023/05/19 10:39:20;;;;;;;3.97;1.63;;;;;;;25.55;25.54;98435.88;10524387;28;20109;-71
2023/05/19 10:44:47;;;;;;;4.57;2.03;;;;;;;26.43;25.71;98427.44;10510790;28;20068;-72
2023/05/19 10:50:08;;;;;;;2.60;1.33;;;;;;;26.72;24.90;98425.00;10524613;28;20127;-71
2023/05/19 10:55:52;;;;;;;3.25;1.70;;;;;;;26.84;25.15;98430.19;10510832;28;20044;-71
2023/05/19 11:01:20;;;;;;;3.60;1.73;;;;;;;26.08;25.86;98426.16;10525115;28;20097;-71
2023/05/19 11:06:42;;;;;;;4.28;2.05;;;;;;;25.19;26.81;98427.31;10511536;28;20126;-71
2023/05/19 11:12:03;;;;;;;4.90;2.22;;;;;;;24.67;27.77;98425.47;10510719;28;20036;-71
2023/05/19 11:17:24;;;;;;;5.07;2.00;;;;;;;24.74;28.14;98420.63;10510317;28;20059;-71
2023/05/19 11:23:00;;;;;;;4.07;1.90;;;;;;;24.00;28.62;98423.84;10510319;28;20063;-71
2023/05/19 11:28:24;;;;;;;3.83;2.00;;;;;;;23.13;30.07;98422.19;10509838;28;20085;-71
2023/05/19 11:33:45;;;;;;;7.95;2.10;;;;;;;22.69;30.91;98410.94;10511088;28;20473;-71
2023/05/19 11:39:07;;;;;;;2.45;1.70;;;;;;;23.41;30.78;98410.88;10496329;28;20044;-71
2023/05/19 11:44:27;;;;;;;5.88;1.80;;;;;;;23.28;30.66;98414.78;10496103;28;20465;-71
2023/05/19 11:49:50;;;;;;;4.90;2.42;;;;;;;22.65;31.81;98416.47;10540185;28;20438;-71
2023/05/19 11:55:15;;;;;;;7.18;2.08;;;;;;;22.28;32.59;98408.91;10546530;28;20071;-69
2023/05/19 12:00:40;;;;;;;6.40;1.63;;;;;;;21.64;34.24;98391.16;10517250;28;20458;-69
2023/05/19 12:06:01;;;;;;;4.97;1.88;;;;;;;22.31;33.75;98413.31;10517385;28;20067;-70
2023/05/19 12:11:22;;;;;;;5.38;1.25;;;;;;;22.09;34.00;98401.91;10502754;28;20401;-69
2023/05/19 12:16:43;;;;;;;3.25;1.50;;;;;;;22.42;33.92;98398.00;10516722;28;20047;-69
2023/05/19 12:22:05;;;;;;;4.97;1.83;;;;;;;22.00;34.10;98403.75;10544557;28;20048;-69
2023/05/19 12:27:26;;;;;;;3.60;1.70;;;;;;;21.40;34.80;98411.66;10530451;28;20510;-69
2023/05/19 12:32:47;;;;;;;5.63;1.90;;;;;;;20.20;36.47;98392.19;10515973;28;20055;-69
2023/05/19 12:38:08;;;;;;;3.33;1.65;;;;;;;19.26;38.92;98393.91;10545037;28;20044;-69
2023/05/19 12:43:29;;;;;;;7.25;1.77;;;;;;;18.75;40.52;98386.00;10529700;28;20467;-71
2023/05/19 12:48:50;;;;;;;3.33;1.52;;;;;;;18.56;41.41;98392.88;10529409;28;20120;-71
2023/05/19 12:54:11;;;;;;;2.63;1.38;;;;;;;19.11;40.80;98392.56;10529254;28;20051;-71
2023/05/19 12:59:32;;;;;;;4.13;1.50;;;;;;;19.67;40.03;98382.25;10528960;28;20517;-71
2023/05/19 13:04:59;;;;;;;4.30;1.30;;;;;;;19.86;39.75;98385.84;10528630;28;20040;-68
2023/05/19 13:10:20;;;;;;;3.33;1.67;;;;;;;19.91;39.81;98388.19;10543410;28;20494;-71
2023/05/19 13:15:47;;;;;;;4.25;1.55;;;;;;;20.16;39.78;98377.84;10543546;28;20168;-71
2023/05/19 13:21:09;;;;;;;2.95;1.33;;;;;;;20.14;39.81;98380.59;10515433;28;20064;-71
2023/05/19 13:26:29;;;;;;;3.70;1.23;;;;;;;19.82;39.70;98382.84;10527825;28;20075;-68
2023/05/19 13:31:50;;;;;;;3.35;1.02;;;;;;;19.49;40.55;98381.44;10513693;28;20133;-71
2023/05/19 13:37:11;;;;;;;3.97;1.05;;;;;;;19.37;41.31;98392.25;10541482;28;20502;-71
2023/05/19 13:42:33;;;;;;;1.50;0.75;;;;;;;19.11;41.14;98375.59;10542616;28;20064;-71
2023/05/19 13:47:54;;;;;;;1.35;0.70;;;;;;;19.13;41.42;98372.84;10527161;28;20405;-71
2023/05/19 13:53:15;;;;;;;1.73;0.88;;;;;;;18.82;41.68;98378.53;10498943;28;20043;-71
2023/05/19 13:58:36;;;;;;;4.47;0.80;;;;;;;18.38;43.48;98374.34;10526809;28;20044;-71
2023/05/19 14:03:57;;;;;;;2.72;0.82;;;;;;;18.13;44.29;98364.72;10526322;28;20086;-71
2023/05/19 14:09:19;;;;;;;3.75;1.10;;;;;;;18.03;44.93;98373.41;10526084;28;20043;-71
2023/05/19 14:14:39;;;;;;;1.33;0.68;;;;;;;17.76;45.16;98382.00;10511901;28;20044;-70
2023/05/19 14:20:00;;;;;;;5.45;1.15;;;;;;;18.00;45.47;98360.56;10511696;28;20047;-71
2023/05/19 14:25:21;;;;;;;1.95;1.00;;;;;;;18.12;44.54;98368.16;10511444;28;20036;-71
2023/05/19 14:30:42;;;;;;;3.83;1.20;;;;;;;17.76;45.44;98367.13;10525287;28;20059;-71
2023/05/19 14:36:04;;;;;;;3.58;1.30;;;;;;;17.54;46.90;98378.00;10525489;28;20044;-71
2023/05/19 14:41:25;;;;;;;2.83;1.70;;;;;;;17.53;46.83;98379.38;10511413;28;20040;-71
2023/05/19 14:46:45;;;;;;;2.60;1.25;;;;;;;17.32;47.80;98375.53;10525107;28;20064;-70
2023/05/19 14:52:06;;;;;;;2.50;1.50;;;;;;;17.24;47.79;98377.94;10510820;28;20071;-71
2023/05/19 14:57:26;;;;;;;4.90;1.50;;;;;;;17.19;48.45;98370.63;10510691;28;20453;-71
2023/05/19 15:02:48;;;;;;;2.60;1.33;;;;;;;17.27;48.72;98376.66;10510658;28;20090;-70
2023/05/19 15:08:09;;;;;;;3.38;1.70;;;;;;;17.24;48.62;98389.22;10524823;28;20044;-71
2023/05/19 15:13:30;;;;;;;5.30;1.90;;;;;;;17.17;49.25;98378.97;10510659;28;20044;-71
2023/05/19 15:18:53;;;;;;;4.72;1.58;;;;;;;17.08;49.55;98385.56;10524603;28;20097;-71
2023/05/19 15:24:14;;;;;;;5.57;1.88;;;;;;;17.32;49.51;98381.19;10510862;28;20040;-71
2023/05/19 15:29:35;;;;;;;3.28;1.67;;;;;;;17.53;49.21;98379.38;10532442;28;20052;-71
2023/05/19 15:34:56;;;;;;;2.63;1.75;;;;;;;17.77;48.67;98385.56;10532464;28;20103;-71
2023/05/19 15:40:17;;;;;;;6.45;2.47;;;;;;;17.79;48.59;98372.25;10532186;28;20481;-70
2023/05/19 15:45:38;;;;;;;5.22;2.47;;;;;;;17.56;48.96;98370.38;10517750;28;20456;-70
2023/05/19 15:50:59;;;;;;;3.25;2.20;;;;;;;17.46;49.50;98367.03;10547228;28;20137;-71
2023/05/19 15:56:20;;;;;;;4.15;2.60;;;;;;;17.51;49.60;98362.34;10531696;28;20079;-71
2023/05/19 16:01:41;;;;;;;4.03;2.05;;;;;;;17.65;49.53;98365.88;10517698;28;20067;-71
2023/05/19 16:07:01;;;;;;;6.13;2.90;;;;;;;17.62;50.10;98369.97;10503121;28;20363;-71
2023/05/19 16:12:26;;;;;;;4.43;2.47;;;;;;;17.52;50.38;98373.00;10530961;28;20059;-71
2023/05/19 16:17:47;;;;;;;4.43;2.40;;;;;;;17.36;50.87;98372.19;10531295;28;20115;-71
2023/05/19 16:23:07;;;;;;;5.53;3.10;;;;;;;17.35;51.31;98367.91;10530603;28;20102;-71
2023/05/19 16:28:28;;;;;;;3.75;2.67;;;;;;;17.27;51.32;98373.84;10529764;28;20576;-71
2023/05/19 16:33:48;;;;;;;7.90;3.13;;;;;;;17.17;51.83;98367.69;10516328;28;20064;-71
2023/05/19 16:39:09;;;;;;;7.60;3.30;;;;;;;16.83;52.64;98366.63;10530173;28;20466;-71
2023/05/19 16:44:30;;;;;;;6.50;2.92;;;;;;;16.71;53.65;98363.91;10515904;28;20076;-71
2023/05/19 16:49:51;;;;;;;4.60;3.58;;;;;;;16.69;53.31;98375.06;10544806;28;20119;-71
2023/05/19 16:55:16;;;;;;;5.25;3.22;;;;;;;16.66;54.02;98367.81;10544301;28;20135;-71
2023/05/19 17:00:36;;;;;;;3.63;2.60;;;;;;;16.42;54.45;98372.16;10529229;28;20467;-71
2023/05/19 17:05:57;;;;;;;4.40;3.10;;;;;;;16.23;55.58;98364.78;10529106;28;20549;-71
2023/05/19 17:11:18;;;;;;;5.53;3.17;;;;;;;16.13;55.90;98370.59;10514836;28;20044;-70
2023/05/19 17:16:38;;;;;;;5.65;3.10;;;;;;;16.07;55.99;98375.16;10514846;28;20159;-71
2023/05/19 17:21:59;;;;;;;4.38;3.17;;;;;;;15.88;56.76;98367.75;10543382;28;20090;-70
2023/05/19 17:27:20;;;;;;;5.32;3.38;;;;;;;15.72;57.40;98373.19;10528279;28;20067;-71
2023/05/19 17:32:40;;;;;;;5.07;3.03;;;;;;;15.64;57.85;98375.56;10514021;28;20192;-71
2023/05/19 17:38:01;;;;;;;5.60;3.00;;;;;;;15.49;58.57;98378.84;10542964;28;20546;-71
2023/05/19 17:43:22;;;;;;;3.85;2.80;;;;;;;15.39;59.20;98379.00;10527516;28;20071;-70
2023/05/19 17:48:42;;;;;;;4.53;2.72;;;;;;;15.26;59.19;98376.81;10541930;28;20542;-71
2023/05/19 17:54:04;;;;;;;4.68;2.83;;;;;;;15.20;59.85;98376.44;10527216;28;20144;-71
2023/05/19 17:59:25;;;;;;;4.10;2.38;;;;;;;15.18;59.91;98372.19;10526978;28;20064;-71
2023/05/19 18:04:47;;;;;;;4.00;2.65;;;;;;;15.15;60.54;98369.84;10526963;28;20060;-71
2023/05/19 18:10:08;;;;;;;3.95;2.05;;;;;;;15.07;60.52;98381.34;10541568;28;20081;-70
2023/05/19 18:15:29;;;;;;;5.28;2.30;;;;;;;14.96;60.63;98375.72;10512454;28;20450;-70
2023/05/19 18:20:50;;;;;;;4.30;2.22;;;;;;;14.91;61.25;98369.13;10498303;28;20439;-71
2023/05/19 18:26:14;;;;;;;3.17;2.20;;;;;;;14.83;61.76;98374.25;10525773;28;20039;-71
2023/05/19 18:31:35;;;;;;;3.40;2.33;;;;;;;14.73;61.92;98390.50;10540730;28;20126;-71
2023/05/19 18:36:56;;;;;;;3.67;2.40;;;;;;;14.57;62.28;98382.56;10540632;28;20044;-71
2023/05/19 18:42:24;;;;;;;3.83;2.20;;;;;;;14.59;62.72;98396.72;10526485;28;20040;-70
2023/05/19 18:47:45;;;;;;;4.28;2.60;;;;;;;14.57;62.33;98399.41;10511047;28;20070;-71
2023/05/19 18:53:06;;;;;;;3.40;2.50;;;;;;;14.51;63.05;98399.03;10525272;28;20374;-70
2023/05/19 18:58:26;;;;;;;5.05;3.00;;;;;;;14.54;63.02;98402.69;10496750;28;20075;-70
2023/05/19 19:03:48;;;;;;;4.80;3.20;;;;;;;14.50;63.18;98405.25;10524595;28;20542;-71
2023/05/19 19:09:09;;;;;;;6.95;2.85;;;;;;;14.42;63.67;98413.88;10497164;28;20509;-70
2023/05/19 19:14:29;;;;;;;5.30;3.30;;;;;;;14.27;64.40;98411.50;10524522;28;20116;-70
2023/05/19 19:19:50;;;;;;;7.80;3.38;;;;;;;14.24;64.46;98409.91;10539508;28;20051;-71
2023/05/19 19:25:11;;;;;;;5.97;4.57;;;;;;;14.24;64.71;98418.31;10510427;28;20109;-71
2023/05/19 19:30:31;;;;;;;7.57;4.70;;;;;;;14.01;65.29;98419.72;10524153;28;20079;-71
2023/05/19 19:35:53;;;;;;;7.68;4.85;;;;;;;13.91;65.46;98432.34;10510363;28;20222;-71
2023/05/19 19:41:13;;;;;;;10.13;5.45;;;;;;;13.81;66.01;98426.81;10524289;28;20063;-70
2023/05/19 19:46:34;;;;;;;10.55;5.43;;;;;;;13.74;66.15;98434.09;10510246;28;20462;-71
2023/05/19 19:51:54;;;;;;;8.60;5.75;;;;;;;13.67;66.41;98431.47;10523924;28;20044;-71
2023/05/19 19:57:18;;;;;;;10.80;5.85;;;;;;;13.60;66.63;98432.41;10509833;28;20173;-71
2023/05/19 20:02:39;;;;;;;9.93;6.50;;;;;;;13.57;66.57;98444.81;10524161;28;20517;-70
2023/05/19 20:08:20;;;;;;;9.88;6.97;;;;;;;13.46;67.08;98441.34;10526469;28;20469;-71
2023/05/19 20:13:41;;;;;;;9.23;6.20;;;;;;;13.43;67.43;98447.41;10529706;28;20123;-71
2023/05/19 20:19:02;;;;;;;8.70;6.65;;;;;;;13.30;67.65;98440.25;10530926;28;20450;-71
2023/05/19 20:24:22;;;;;;;10.32;6.88;;;;;;;13.10;67.91;98433.22;10516910;28;20367;-71
2023/05/19 20:29:44;;;;;;;10.45;7.32;;;;;;;12.87;69.21;98428.91;10516575;28;20059;-70
2023/05/19 20:35:05;;;;;;;11.45;6.85;;;;;;;12.75;68.93;98430.84;10530478;28;20051;-70
2023/05/19 20:40:26;;;;;;;11.32;7.38;;;;;;;12.61;70.08;98444.59;10530102;28;20173;-71
2023/05/19 20:45:47;;;;;;;10.10;7.75;;;;;;;12.45;71.09;98442.69;10530036;28;20124;-70
2023/05/19 20:51:08;;;;;;;15.40;8.95;;;;;;;12.31;71.77;98448.03;10515695;28;20119;-71
2023/05/19 20:56:29;;;;;;;13.23;8.07;;;;;;;12.19;71.98;98447.91;10529463;28;20124;-70
2023/05/19 21:01:50;;;;;;;10.90;7.97;;;;;;;12.10;72.49;98440.25;10529297;28;20048;-70
2023/05/19 21:07:10;;;;;;;17.40;9.55;;;;;;;12.00;73.45;98437.44;10500900;28;20462;-70
2023/05/19 21:12:32;;;;;;;10.90;8.02;;;;;;;11.93;72.83;98435.50;10542945;28;20044;-70
2023/05/19 21:17:54;;;;;;;13.20;9.27;;;;;;;11.79;73.97;98434.47;10514865;28;20127;-70
2023/05/19 21:23:14;;;;;;;15.98;10.25;;;;;;;11.72;74.41;98424.88;10527400;28;20123;-70
2023/05/19 21:28:35;;;;;;;14.75;9.90;;;;;;;11.64;75.05;98417.94;10528116;28;20541;-70
2023/05/19 21:33:56;;;;;;;15.45;10.65;;;;;;;11.52;75.67;98426.19;10527873;28;20139;-71
2023/05/19 21:39:17;;;;;;;14.95;9.88;;;;;;;11.44;76.11;98428.38;10513981;28;20143;-71
2023/05/19 21:44:38;;;;;;;15.30;10.73;;;;;;;11.38;76.55;98444.66;10527422;28;20066;-71
2023/05/19 21:49:58;;;;;;;15.90;11.13;;;;;;;11.27;77.69;98468.31;10499790;28;20165;-71
2023/05/19 21:55:20;;;;;;;15.50;10.82;;;;;;;11.12;78.20;98465.78;10526970;28;20450;-71
2023/05/19 22:00:42;;;;;;;16.17;11.57;;;;;;;10.98;78.91;98459.81;10527206;28;20124;-71
2023/05/19 22:06:05;;;;;;;17.42;12.27;;;;;;;10.87;79.94;98465.94;10541779;28;20044;-71
2023/05/19 22:11:25;;;;;;;18.08;11.52;;;;;;;10.79;80.37;98454.88;10526322;28;20116;-71
2023/05/19 22:16:46;;;;;;;15.77;10.95;;;;;;;10.70;80.82;98457.63;10498348;28;20123;-71
2023/05/19 22:22:07;;;;;;;19.00;13.20;;;;;;;10.75;81.51;98456.63;10525998;28;20059;-71
2023/05/19 22:27:34;;;;;;;19.13;12.25;;;;;;;10.67;81.89;98453.94;10527016;28;20075;-71
2023/05/19 22:32:54;;;;;;;18.67;12.75;;;;;;;10.64;81.71;98452.31;10525240;28;20136;-71
2023/05/19 22:38:15;;;;;;;18.35;12.45;;;;;;;10.62;82.34;98443.03;10525601;28;20044;-71
2023/05/19 22:43:36;;;;;;;21.08;13.05;;;;;;;10.59;82.24;98442.88;10525482;28;20048;-71
2023/05/19 22:48:56;;;;;;;20.77;13.23;;;;;;;10.57;82.48;98433.59;10525049;28;20044;-71
2023/05/19 22:54:17;;;;;;;21.42;13.93;;;;;;;10.60;83.47;98432.44;10511233;28;20064;-71
2023/05/19 22:59:38;;;;;;;21.90;13.15;;;;;;;10.65;83.30;98430.72;10510887;28;20604;-71
2023/05/19 23:04:59;;;;;;;19.35;12.38;;;;;;;10.70;82.92;98422.06;10511015;28;20458;-71
2023/05/19 23:10:20;;;;;;;17.60;11.52;;;;;;;10.73;82.86;98422.97;10524635;28;20063;-71
2023/05/19 23:15:40;;;;;;;16.13;11.43;;;;;;;10.69;82.95;98411.47;10524476;28;20124;-71
2023/05/19 23:21:01;;;;;;;20.48;14.25;;;;;;;10.63;83.28;98403.38;10510814;28;20067;-71
2023/05/19 23:26:22;;;;;;;20.25;12.60;;;;;;;10.50;83.76;98401.66;10539308;28;20144;-71
2023/05/19 23:31:42;;;;;;;19.67;12.27;;;;;;;10.46;84.22;98409.75;10510114;28;20082;-71
2023/05/19 23:37:04;;;;;;;17.77;11.85;;;;;;;10.40;84.39;98406.47;10539195;28;20502;-71
2023/05/19 23:42:25;;;;;;;20.92;12.45;;;;;;;10.44;84.44;98411.66;10510063;28;20506;-71
2023/05/19 23:47:45;;;;;;;18.35;12.32;;;;;;;10.47;84.32;98410.47;10542709;28;20068;-71
2023/05/19 23:53:06;;;;;;;19.73;12.77;;;;;;;10.51;84.34;98416.38;10532055;28;20063;-70
2023/05/19 23:58:27;;;;;;;21.35;13.88;;;;;;;10.49;84.22;98411.38;10517938;28;20116;-71
